Accueil
METAR-TAF:

METAR-TAF

Aéroports :

Base aérienne 133 Nancy-Ochey

Nancy, France

latitude: 48-35N, longitude: 005-58E, altitude: 336 m

Observation

Le bulletin a été fait il y a 16 minutes, à 19:30 UTC
Vent 3 kt de sud-est
Température 19°C
Humidité 52%
Pression 1017 hPa
Visibilité 10 km ou plus
pas de nuages en-dessous de 1500 mètres et pas de cumulonimbus.

METAR: LFSO 041930Z AUTO 14003KT CAVOK 19/09 Q1017

Heure: 21:46 (19:46 UTC)

Prévision

Le bulletin a été fait il y a 5 heures et 46 minutes, à 14:00 UTC
Prévision valable du 04 à 15 UTC au 05 à 15 UTC
Vent 5 kt de nord/nord-est
Visibilité 10 km ou plus
pas de nuages en-dessous de 1500 mètres et pas de cumulonimbus.

TAF: LFSO 041400Z 0415/0515 03005KT CAVOK

Observations et prévisions météorologiques de plus de 4000 aéroports (messages METAR et TAF).

Les stations disponibles sont représentées par des disques jaunes et rouges sur la carte.

Passer la souris dessus pour voir le nom de la station.

Cliquer dessus pour voir les observations et prévisions météorologiques.

Pour changer de carte: cliquez sur les boutons verts avec une croix noire pour zoomer, sur le bouton vert avec un tiret pour effectuer un zoom arrière, ou sur les flèches vertes pour les cartes adjacentes.


METAR-TAF: